Latest Weather Observations for Butlers Gorge

IDT60801

Issued at 6:05 pm EST Thursday 24 April 2014 (issued every 30 minutes, with the page automatically refreshed every 10 minutes)

About weather observations | Map of weather stations | Latest weather observations for TAS | Other Formats
Station Details ID: 096003 Name: BUTLERS GORGE Lat: -42.28 Lon: 146.28 Height: 667.0 m
Data from the previous 72 hours. | See also: Recent months at Butlers Gorge
Date/Time
EST
Temp
°C
App
Temp
°C
Dew
Point
Rel
Hum
%
Delta-T
°C
Wind Press
QNH
hPa
Press
MSL
hPa
Rain
since 9 am
mm
Dir
 
Spd
km/h
Gust
km/h
Spd
kts
Gust
kts
24/06:00pm 3.6 -0.8 0.1 78 1.4 WNW 13 28 7 15 - - 7.0
24/05:30pm 3.4 -1.0 0.3 80 1.2 W 13 30 7 16 - - 7.0
24/05:00pm 3.2 -1.1 0.8 84 1.0 WNW 13 35 7 19 - - 7.0
24/04:30pm 2.9 -1.0 1.0 87 0.8 W 11 30 6 16 - - 7.0
24/04:00pm 3.1 -2.0 0.7 84 1.0 WSW 17 35 9 19 - - 6.6
24/03:30pm 5.2 -0.5 -1.0 64 2.4 W 19 35 10 19 - - 6.4
24/03:00pm 5.6 -0.1 -0.9 63 2.5 W 19 39 10 21 - - 6.4
24/02:30pm 4.9 -0.7 -0.1 70 2.0 W 19 33 10 18 - - 6.4
24/02:00pm 5.6 0.4 0.2 68 2.2 W 17 35 9 19 - - 6.4
24/01:30pm 5.0 -0.8 0.0 70 2.0 WSW 20 35 11 19 - - 6.4
24/01:00pm 3.6 -0.8 0.3 79 1.3 WSW 13 33 7 18 - - 6.4
24/12:30pm 5.1 -0.6 0.5 72 1.9 WSW 20 37 11 20 - - 5.6
24/12:00pm 3.5 -1.7 0.4 80 1.2 WSW 17 26 9 14 - - 5.6
24/11:30am 3.7 -0.5 1.6 86 0.9 WSW 13 22 7 12 - - 5.0
24/11:00am 4.2 0.0 1.6 83 1.1 W 13 24 7 13 - - 3.4
24/10:30am 4.1 0.3 1.6 84 1.0 WNW 11 37 6 20 - - 3.2
24/10:00am 2.4 -1.6 0.8 89 0.6 W 11 22 6 12 - - 3.2
24/09:30am 3.3 0.4 1.3 87 0.8 NW 6 17 3 9 - - 1.8
24/09:00am 4.2 0.0 1.4 82 1.1 W 13 37 7 20 - - 14.8
24/08:30am 4.6 0.8 1.8 82 1.2 WSW 11 20 6 11 - - 14.6
24/08:00am 4.8 1.8 2.0 82 1.2 W 7 22 4 12 - - 14.6
24/07:30am 4.6 -0.3 2.1 84 1.0 WSW 17 39 9 21 - - 14.6
24/07:00am 4.9 0.9 2.6 85 1.0 W 13 35 7 19 - - 14.2
24/06:30am 5.2 2.1 3.5 89 0.7 W 9 19 5 10 - - 13.6
24/06:00am 4.8 1.2 3.1 89 0.7 NW 11 17 6 9 - - 13.4
24/05:30am 4.8 1.3 3.6 92 0.5 WSW 11 19 6 10 - - 12.0
24/05:00am 4.3 1.4 2.8 90 0.6 W 7 15 4 8 - - 11.0
24/04:30am 4.6 1.0 2.9 89 0.7 W 11 17 6 9 - - 9.2
24/04:00am 5.8 2.0 3.8 87 0.9 W 13 30 7 16 - - 5.6
24/03:30am 7.8 3.0 5.6 86 1.0 WSW 20 32 11 17 - - 3.4
24/03:00am 10.0 6.5 7.1 82 1.4 NW 15 26 8 14 - - 1.2
24/02:30am 10.2 7.3 6.4 77 1.8 NW 11 26 6 14 - - 1.2
24/02:00am 10.1 6.4 6.3 77 1.8 NNW 15 33 8 18 - - 1.2
24/01:30am 9.8 6.0 6.0 77 1.8 NNW 15 28 8 15 - - 1.2
24/01:00am 9.3 5.9 5.7 78 1.7 NW 13 28 7 15 - - 1.2
24/12:30am 8.8 6.0 6.9 88 0.9 NW 11 26 6 14 - - 1.2
24/12:00am 8.8 6.9 7.4 91 0.7 NW 7 11 4 6 - - 0.8
 
Date/Time
EST
Temp
°C
App
Temp
°C
Dew
Point
Rel
Hum
%
Delta-T
°C
Wind Press
QNH
hPa
Press
MSL
hPa
Rain
since 9 am
mm
Dir
 
Spd
km/h
Gust
km/h
Spd
kts
Gust
kts
23/11:30pm 8.4 6.4 7.2 92 0.6 NNW 7 22 4 12 - - 0.6
23/11:00pm 8.0 6.9 7.1 94 0.4 ESE 2 9 1 5 - - 0.6
23/10:30pm 8.8 6.7 6.6 86 1.1 NW 7 15 4 8 - - 0.0
23/10:00pm 9.6 6.8 5.0 73 2.2 NW 9 24 5 13 - - 0.0
23/09:30pm 9.4 6.5 4.4 71 2.3 NW 9 20 5 11 - - 0.0
23/09:00pm 9.0 5.8 5.0 76 1.9 WNW 11 20 6 11 - - 0.0
23/08:30pm 9.0 5.8 5.2 77 1.8 WNW 11 19 6 10 - - 0.0
23/08:00pm 9.2 6.4 5.0 75 2.0 NW 9 19 5 10 - - 0.0
23/07:30pm 8.8 5.9 4.6 75 1.9 NNW 9 20 5 11 - - 0.0
23/07:00pm 8.9 6.0 4.7 75 1.9 WNW 9 17 5 9 - - 0.0
23/06:30pm 8.6 5.7 4.4 75 1.9 W 9 17 5 9 - - 0.0
23/06:00pm 9.0 5.2 4.0 71 2.3 W 13 22 7 12 - - 0.0
23/05:30pm 9.6 5.7 3.6 66 2.7 WNW 13 26 7 14 - - 0.0
23/05:00pm 9.9 6.1 4.1 67 2.7 WNW 13 22 7 12 - - 0.0
23/04:30pm 10.5 7.4 3.5 62 3.2 N 9 17 5 9 - - 0.0
23/04:00pm 10.7 6.8 3.3 60 3.4 N 13 24 7 13 - - 0.0
23/03:30pm 10.8 6.5 3.4 60 3.4 NW 15 26 8 14 - - 0.0
23/03:00pm 10.6 7.2 4.1 64 3.0 NW 11 22 6 12 - - 0.0
23/02:30pm 10.4 6.2 3.7 63 3.1 NW 15 28 8 15 - - 0.0
23/02:00pm 10.6 6.1 1.9 55 3.8 NW 15 26 8 14 - - 0.0
23/01:30pm 10.4 6.3 2.5 58 3.5 NW 13 24 7 13 - - 0.0
23/01:00pm 10.3 6.5 4.0 65 2.9 WNW 13 20 7 11 - - 0.0
23/12:30pm 10.2 6.7 3.5 63 3.0 NW 11 22 6 12 - - 0.0
23/12:00pm 10.2 7.1 5.4 72 2.3 WNW 11 24 6 13 - - 0.0
23/11:30am 10.0 7.1 4.8 70 2.4 WNW 9 24 5 13 - - 0.0
23/11:00am 9.8 6.4 4.2 68 2.6 W 11 20 6 11 - - 0.0
23/10:30am 9.9 6.4 3.4 64 2.9 WNW 11 22 6 12 - - 0.0
23/10:00am 9.5 6.1 4.1 69 2.5 NW 11 17 6 9 - - 0.0
23/09:30am 9.2 5.8 4.0 70 2.4 NNW 11 20 6 11 - - 0.0
23/09:00am 8.6 5.2 4.0 73 2.1 NW 11 19 6 10 - - 2.8
23/08:30am 7.7 5.5 5.2 84 1.2 WSW 6 9 3 5 - - 2.8
23/08:00am 7.1 4.1 3.9 80 1.4 WNW 9 15 5 8 - - 2.8
23/07:30am 7.0 4.0 4.0 81 1.3 N 9 19 5 10 - - 2.8
23/07:00am 6.4 2.7 4.6 88 0.8 NW 13 24 7 13 - - 2.8
23/06:30am 5.2 2.8 4.3 94 0.4 W 6 9 3 5 - - 2.8
23/06:00am 5.7 4.0 3.9 88 0.8 WNW 2 9 1 5 - - 2.8
23/05:30am 5.8 3.4 4.1 89 0.8 WNW 6 11 3 6 - - 2.8
23/05:00am 5.7 3.1 4.2 90 0.7 NNW 7 13 4 7 - - 2.8
23/04:30am 6.2 3.8 4.5 89 0.8 WSW 6 11 3 6 - - 2.6
23/04:00am 6.7 3.9 5.2 90 0.7 NW 9 15 5 8 - - 2.6
23/03:30am 7.1 3.9 4.9 86 1.0 NW 11 20 6 11 - - 2.2
23/03:00am 6.9 4.6 5.5 91 0.6 NW 7 20 4 11 - - 2.2
23/02:30am 6.4 5.4 5.7 95 0.3 CALM 0 0 0 0 - - 2.0
23/02:00am 6.5 4.3 5.5 93 0.5 W 6 11 3 6 - - 1.8
23/01:30am 6.7 4.4 5.5 92 0.6 WNW 7 15 4 8 - - 1.8
23/01:00am 6.5 3.7 5.1 91 0.6 W 9 15 5 8 - - 1.8
23/12:30am 7.4 4.5 4.9 84 1.1 W 9 19 5 10 - - 1.6
23/12:00am 7.2 4.3 4.5 83 1.2 WSW 9 17 5 9 - - 1.6
 
Date/Time
EST
Temp
°C
App
Temp
°C
Dew
Point
Rel
Hum
%
Delta-T
°C
Wind Press
QNH
hPa
Press
MSL
hPa
Rain
since 9 am
mm
Dir
 
Spd
km/h
Gust
km/h
Spd
kts
Gust
kts
22/11:30pm 7.1 3.8 4.6 84 1.1 WSW 11 22 6 12 - - 1.6
22/11:00pm 6.8 3.8 4.3 84 1.1 WSW 9 20 5 11 - - 1.6
22/10:30pm 5.6 2.5 3.8 88 0.8 WSW 9 17 5 9 - - 1.6
22/10:00pm 6.1 2.7 3.9 86 1.0 WSW 11 17 6 9 - - 1.6
22/09:30pm 6.5 3.1 3.8 83 1.2 WSW 11 17 6 9 - - 1.6
22/09:00pm 7.1 3.8 4.6 84 1.1 W 11 22 6 12 - - 1.6
22/08:30pm 7.3 4.6 5.4 88 0.9 W 9 20 5 11 - - 1.6
22/08:00pm 7.7 4.7 5.8 88 0.9 WNW 11 17 6 9 - - 1.2
22/07:30pm 8.1 4.7 5.7 85 1.1 WNW 13 22 7 12 - - 1.0
22/07:00pm 8.0 5.3 5.5 84 1.2 W 9 15 5 8 - - 1.0
22/06:30pm 8.2 4.6 5.1 81 1.4 NW 13 28 7 15 - - 1.0
22/06:00pm 8.6 4.9 4.4 75 1.9 WNW 13 26 7 14 - - 1.0
22/05:30pm 8.7 5.7 4.3 74 2.0 W 9 17 5 9 - - 1.0
22/05:00pm 8.8 5.5 4.4 74 2.0 WNW 11 20 6 11 - - 1.0
22/04:30pm 8.7 5.2 3.7 71 2.3 W 11 24 6 13 - - 1.0
22/04:00pm 9.0 5.4 3.2 67 2.6 W 11 22 6 12 - - 1.0
22/03:30pm 9.5 4.9 3.9 68 2.6 WNW 17 28 9 15 - - 1.0
22/03:00pm 9.8 6.1 4.4 69 2.5 W 13 24 7 13 - - 1.0
22/02:30pm 9.2 5.1 4.2 71 2.3 W 15 32 8 17 - - 1.0
22/02:00pm 9.4 5.0 5.0 74 2.1 W 17 28 9 15 - - 1.0
22/01:30pm 9.1 5.4 6.2 82 1.4 W 15 24 8 13 - - 1.0
22/01:00pm 9.2 6.3 6.5 83 1.3 WSW 11 19 6 10 - - 1.0
22/12:30pm 9.1 5.9 6.9 86 1.1 W 13 20 7 11 - - 0.6
22/12:00pm 10.2 7.8 6.9 80 1.6 WNW 9 17 5 9 - - 0.0
22/11:30am 10.0 5.6 6.7 80 1.6 WSW 19 30 10 16 - - 0.0
22/11:00am 10.4 7.5 8.0 85 1.2 W 13 20 7 11 - - 0.0
22/10:30am 10.8 6.9 7.3 79 1.7 WNW 17 30 9 16 - - 0.0
22/10:00am 10.8 7.0 6.0 72 2.3 WNW 15 28 8 15 - - 0.0
22/09:30am 10.6 7.7 6.4 75 2.0 WNW 11 30 6 16 - - 0.0
22/09:00am 10.6 6.7 6.9 78 1.8 WNW 17 41 9 22 - - 10.8
22/08:30am 10.5 7.6 8.3 86 1.1 NW 13 28 7 15 - - 10.8
22/08:00am 11.4 8.1 7.9 79 1.8 NW 15 26 8 14 - - 10.2
22/07:30am 11.5 8.0 7.4 76 2.1 NW 15 28 8 15 - - 10.2
22/07:00am 11.7 8.7 7.8 77 2.0 WNW 13 26 7 14 - - 10.2
22/06:30am 11.5 8.6 8.2 80 1.7 WNW 13 26 7 14 - - 10.2
22/06:00am 12.3 9.0 8.2 76 2.1 WNW 15 24 8 13 - - 10.2
22/05:30am 12.6 9.7 8.1 74 2.3 WNW 13 26 7 14 - - 10.2
22/05:00am 12.8 9.6 8.3 74 2.3 WNW 15 41 8 22 - - 10.2
22/04:30am 13.3 10.7 9.2 76 2.2 NW 13 22 7 12 - - 10.2
22/04:00am 13.6 10.9 8.9 73 2.5 NW 13 26 7 14 - - 10.2
22/03:30am 13.5 10.4 9.0 74 2.4 NW 15 30 8 16 - - 10.2
22/03:00am 13.5 9.5 9.2 75 2.3 NW 20 35 11 19 - - 10.2
22/02:30am 13.6 9.6 8.9 73 2.5 NW 20 39 11 21 - - 10.2
22/02:00am 13.5 10.1 9.0 74 2.4 NW 17 32 9 17 - - 10.2
22/01:30am 13.8 9.7 8.8 72 2.6 NW 20 43 11 23 - - 10.2
22/01:00am 13.7 9.7 9.0 73 2.5 NW 20 43 11 23 - - 10.2
22/12:30am 13.4 9.4 9.1 75 2.3 NW 20 46 11 25 - - 10.2
22/12:00am 13.1 9.8 9.4 78 1.9 NW 17 33 9 18 - - 10.2
 
Date/Time
EST
Temp
°C
App
Temp
°C
Dew
Point
Rel
Hum
%
Delta-T
°C
Wind Press
QNH
hPa
Press
MSL
hPa
Rain
since 9 am
mm
Dir
 
Spd
km/h
Gust
km/h
Spd
kts
Gust
kts
21/11:30pm 11.3 9.9 9.0 86 1.2 NNE 6 15 3 8 - - 10.2
21/11:00pm 10.4 8.8 8.7 89 0.9 N 7 15 4 8 - - 10.2
21/10:30pm 8.7 7.2 8.6 99 0.1 SE 6 11 3 6 - - 10.2
21/10:00pm 6.2 4.1 5.9 98 0.1 SSE 6 9 3 5 - - 10.2
21/09:30pm 5.7 3.5 5.4 98 0.1 NNE 6 9 3 5 - - 9.8
21/09:00pm 5.6 4.5 5.3 98 0.1 CALM 0 0 0 0 - - 8.8
21/08:30pm 5.4 4.3 5.1 98 0.1 CALM 0 0 0 0 - - 7.6
21/08:00pm 5.4 4.3 5.0 97 0.2 CALM 0 0 0 0 - - 6.4
21/07:30pm 5.4 4.3 5.0 97 0.2 CALM 0 7 0 4 - - 5.6
21/07:00pm 5.5 4.4 4.9 96 0.3 CALM 0 0 0 0 - - 4.0
21/06:30pm 5.5 4.4 5.1 97 0.2 CALM 0 0 0 0 - - 3.8

Other Formats:

Comma delimited format used in spreadsheet applications
http://www.bom.gov.au/fwo/IDT60801/IDT60801.94959.axf

JavaScript Object Notation format (JSON) in row-major order
http://www.bom.gov.au/fwo/IDT60801/IDT60801.94959.json